This is the latest recevied weather packets stored in our database for station/object K1WJY. If no packets are shown the sender has not sent any weather packets the latest 10 day(s).
| Time | Temp. | Humidity | Pressure | Rain* | Wind** | Luminosity | Snow |
|---|---|---|---|---|---|---|---|
| 1777878807 | 2.22° C | 87% | 1008.7 hPa | 0 mm | - | 0 W/m² | - |
| 1777878505 | 2.78° C | 87% | 1008.5 hPa | 0 mm | - | 0 W/m² | - |
| 1777878201 | 2.78° C | 86% | 1008.7 hPa | 0 mm | - | 0 W/m² | - |
| 1777877897 | 2.22° C | 87% | 1008.2 hPa | 0 mm | - | 0 W/m² | - |
| 1777877594 | 2.78° C | 85% | 1008.5 hPa | 0 mm | - | 0 W/m² | - |
| 1777877291 | 3.33° C | 83% | 1008.1 hPa | 0 mm | - | 0 W/m² | - |
| 1777876988 | 3.33° C | 84% | 1008.2 hPa | 0 mm | - | 0 W/m² | - |
| 1777876686 | 2.78° C | 84% | 1008.2 hPa | 0 mm | - | 0 W/m² | - |
| 1777876383 | 2.78° C | 85% | 1008.2 hPa | 0 mm | - | 0 W/m² | - |
| 1777876079 | 2.78° C | 86% | 1008.1 hPa | 0 mm | - | 0 W/m² | - |
| 1777875775 | 2.22° C | 89% | 1008.1 hPa | 0 mm | - | 0 W/m² | - |
| 1777875472 | 1.67° C | 92% | 1008 hPa | 0 mm | - | 0 W/m² | - |
| 1777875168 | 1.67° C | 94% | 1007.9 hPa | 0 mm | - | 0 W/m² | - |
| 1777874866 | 1.11° C | 95% | 1007.8 hPa | 0 mm | - | 0 W/m² | - |
| 1777874561 | 1.11° C | 95% | 1007.8 hPa | 0 mm | - | 0 W/m² | - |
| 1777874259 | 1.11° C | 95% | 1007.8 hPa | 0 mm | - | 0 W/m² | - |
| 1777873956 | 1.67° C | 94% | 1007.8 hPa | 0 mm | - | 0 W/m² | - |
| 1777873653 | 1.67° C | 93% | 1007.9 hPa | 0 mm | - | 0 W/m² | - |
| 1777873351 | 2.22° C | 91% | 1007.8 hPa | 0 mm | - | 0 W/m² | - |
| 1777873047 | 2.22° C | 89% | 1007.9 hPa | 0 mm | - | 0 W/m² | - |
| 1777872744 | 2.78° C | 87% | 1007.7 hPa | 0 mm | - | 0 W/m² | - |
| 1777872441 | 3.33° C | 85% | 1007.7 hPa | 0 mm | - | 0 W/m² | - |
| 1777872139 | 3.33° C | 83% | 1007.6 hPa | 0 mm | - | 0 W/m² | - |
| 1777871836 | 3.33° C | 83% | 1007.5 hPa | 0 mm | - | 0 W/m² | - |
| 1777871532 | 3.33° C | 83% | 1007.5 hPa | 0 mm | - | 0 W/m² | - |
* Rain latest hour (hover to see other rain measurements)
** Current wind speed in m/s (hover to see current wind gust speed)